Time;durP1;ratioP1;P1;durP2;ratioP2;P2;SDS_P1;SDS_P2;PMS_P1;PMS_P2;Temp;Humidity;BMP_temperature;BMP_pressure;BME280_temperature;BME280_humidity;BME280_pressure;Samples;Min_cycle;Max_cycle;Signal;HPM_P1;HPM_P2
2023/01/29 00:01:03;;;;;;;12.70;6.03;;;0.70;99.90;;;;;;4972519;28;20219;-71
2023/01/29 00:03:29;;;;;;;10.37;5.13;;;0.70;99.90;;;;;;4972549;28;20177;-72
2023/01/29 00:05:54;;;;;;;11.30;6.10;;;0.70;99.90;;;;;;4980417;28;20455;-73
2023/01/29 00:08:19;;;;;;;9.40;6.10;;;0.70;99.90;;;;;;4972670;28;20182;-72
2023/01/29 00:10:45;;;;;;;9.03;5.83;;;0.70;99.90;;;;;;4971650;28;20270;-72
2023/01/29 00:13:10;;;;;;;9.60;5.60;;;0.70;99.90;;;;;;4972103;28;20189;-73
2023/01/29 00:15:36;;;;;;;8.70;5.60;;;0.70;99.90;;;;;;4972362;28;20192;-72
2023/01/29 00:18:01;;;;;;;11.83;7.13;;;0.70;99.90;;;;;;4972403;28;20228;-73
2023/01/29 00:20:27;;;;;;;14.30;7.90;;;0.70;99.90;;;;;;4972297;28;20758;-73
2023/01/29 00:22:52;;;;;;;13.00;7.10;;;0.70;99.90;;;;;;4972426;28;20204;-72
2023/01/29 00:25:18;;;;;;;12.03;6.90;;;0.80;99.90;;;;;;4980402;28;20223;-72
2023/01/29 00:27:43;;;;;;;15.77;7.30;;;0.80;99.90;;;;;;4972507;28;20268;-72
2023/01/29 00:30:13;;;;;;;11.60;7.40;;;0.80;99.90;;;;;;4972202;28;20188;-73
2023/01/29 00:32:39;;;;;;;13.20;6.80;;;0.80;99.90;;;;;;4972028;28;20212;-71
2023/01/29 00:35:06;;;;;;;10.90;6.33;;;0.80;99.90;;;;;;4971972;28;20425;-72
2023/01/29 00:37:32;;;;;;;10.90;5.87;;;0.80;99.90;;;;;;4979947;28;20423;-71
2023/01/29 00:39:57;;;;;;;14.33;6.83;;;0.80;99.90;;;;;;4971989;28;20419;-71
2023/01/29 00:45:08;;;;;;;31.33;7.23;;;0.80;99.90;;;;;;4971914;28;20203;-71
2023/01/29 00:47:34;;;;;;;32.47;6.80;;;0.70;99.90;;;;;;4972023;28;20474;-72
2023/01/29 00:50:05;;;;;;;27.33;7.27;;;0.70;99.90;;;;;;4972201;28;20454;-70
2023/01/29 00:52:31;;;;;;;26.90;6.43;;;0.70;99.90;;;;;;4971832;28;20196;-71
2023/01/29 00:54:58;;;;;;;19.00;6.10;;;0.70;99.90;;;;;;4972465;28;20461;-71
2023/01/29 00:57:26;;;;;;;16.83;6.03;;;0.70;99.90;;;;;;4972824;28;20208;-70
2023/01/29 00:59:52;;;;;;;15.83;6.40;;;0.70;99.90;;;;;;4972948;28;20919;-72
2023/01/29 01:05:04;;;;;;;20.63;6.80;;;0.70;99.90;;;;;;4980870;28;20426;-72
2023/01/29 01:07:30;;;;;;;17.50;6.77;;;0.70;99.90;;;;;;4972773;28;20426;-72
2023/01/29 01:12:40;;;;;;;13.43;5.67;;;0.70;99.90;;;;;;4972927;28;20225;-72
2023/01/29 01:15:05;;;;;;;16.40;6.67;;;0.60;99.90;;;;;;4972583;28;20421;-71
2023/01/29 01:17:31;;;;;;;19.13;6.17;;;0.70;99.90;;;;;;4973003;28;20186;-71
2023/01/29 01:19:56;;;;;;;15.70;6.10;;;0.60;99.90;;;;;;4972739;28;20563;-70
2023/01/29 01:22:22;;;;;;;16.13;6.33;;;0.60;99.90;;;;;;4973453;28;20222;-71
2023/01/29 01:24:47;;;;;;;13.60;6.97;;;0.60;99.90;;;;;;4979017;28;20187;-72
2023/01/29 01:27:13;;;;;;;13.83;6.50;;;0.60;99.90;;;;;;4961427;28;20210;-73
2023/01/29 01:29:38;;;;;;;12.97;6.57;;;0.50;99.90;;;;;;4979120;28;20199;-71
2023/01/29 01:32:05;;;;;;;15.43;5.73;;;0.50;99.90;;;;;;4962107;28;20216;-72
2023/01/29 01:34:30;;;;;;;18.93;7.63;;;0.50;99.90;;;;;;4968839;28;20650;-72
2023/01/29 01:36:56;;;;;;;15.43;6.27;;;0.50;99.90;;;;;;4979609;28;20458;-70
2023/01/29 01:39:23;;;;;;;17.53;5.00;;;0.50;99.90;;;;;;4978935;28;20245;-72
2023/01/29 01:41:52;;;;;;;18.73;6.10;;;0.50;99.90;;;;;;4979151;28;20249;-71
2023/01/29 01:44:57;;;;;;;11.67;5.73;;;0.50;99.90;;;;;;4978789;28;20418;-72
2023/01/29 01:47:44;;;;;;;17.53;7.17;;;0.50;99.90;;;;;;5000653;28;20429;-71
2023/01/29 01:50:36;;;;;;;14.90;6.60;;;0.50;99.90;;;;;;4978719;28;20412;-71
2023/01/29 01:53:14;;;;;;;15.07;5.93;;;0.50;99.90;;;;;;4978676;28;20518;-70
2023/01/29 01:55:54;;;;;;;12.47;6.40;;;0.40;99.90;;;;;;4979058;28;20421;-71
2023/01/29 01:58:26;;;;;;;13.83;6.83;;;0.40;99.90;;;;;;4978812;28;20440;-71
2023/01/29 03:34:27;;;;;;;11.70;5.47;;;0.20;99.90;;;;;;4992759;28;20453;-74
2023/01/29 03:36:58;;;;;;;12.27;5.80;;;0.20;99.90;;;;;;4992887;28;20477;-71
2023/01/29 03:39:27;;;;;;;14.33;6.30;;;0.20;99.90;;;;;;4993389;28;20457;-72
2023/01/29 03:42:17;;;;;;;9.63;5.60;;;0.20;99.90;;;;;;4993124;28;20480;-72
2023/01/29 03:44:56;;;;;;;13.57;6.47;;;0.20;99.90;;;;;;4986239;28;20421;-72
2023/01/29 03:47:39;;;;;;;13.53;6.37;;;0.10;99.90;;;;;;4992167;28;20426;-72
2023/01/29 03:50:27;;;;;;;9.33;5.60;;;0.10;99.90;;;;;;4993199;28;20437;-72
2023/01/29 03:53:05;;;;;;;11.80;6.30;;;0.10;99.90;;;;;;4991630;28;20791;-73
2023/01/29 03:55:41;;;;;;;12.70;6.50;;;0.10;99.90;;;;;;4993102;28;20404;-72
2023/01/29 03:58:48;;;;;;;13.87;6.63;;;0.10;99.90;;;;;;4993106;28;20440;-72
2023/01/29 04:01:28;;;;;;;10.57;5.73;;;0.10;99.90;;;;;;4987751;28;20488;-73
2023/01/29 04:04:02;;;;;;;10.17;6.00;;;0.20;99.90;;;;;;4992652;28;20945;-73
2023/01/29 04:06:34;;;;;;;12.20;6.53;;;0.10;99.90;;;;;;4992932;28;20518;-72
2023/01/29 04:09:05;;;;;;;13.70;6.17;;;0.20;99.90;;;;;;4993347;28;20914;-73
2023/01/29 04:11:35;;;;;;;14.73;6.60;;;0.20;99.90;;;;;;4993682;28;20448;-73
2023/01/29 04:14:00;;;;;;;10.30;5.93;;;0.20;99.90;;;;;;4993389;28;20431;-73
2023/01/29 04:16:32;;;;;;;12.00;5.10;;;0.20;99.90;;;;;;4992648;28;20435;-72
2023/01/29 04:18:58;;;;;;;10.33;6.20;;;0.20;99.90;;;;;;4993079;28;20543;-75
2023/01/29 04:21:24;;;;;;;12.80;5.97;;;0.20;99.90;;;;;;4992586;28;20478;-74
2023/01/29 04:23:50;;;;;;;10.63;5.87;;;0.20;99.90;;;;;;4992333;28;20983;-73
2023/01/29 04:26:26;;;;;;;15.00;5.87;;;0.20;99.90;;;;;;4992633;28;20460;-73
2023/01/29 04:29:15;;;;;;;13.37;5.93;;;0.20;99.90;;;;;;4992387;28;20190;-73
2023/01/29 04:31:50;;;;;;;12.90;6.43;;;0.10;99.90;;;;;;4990915;28;20487;-72
2023/01/29 04:34:31;;;;;;;10.80;6.60;;;0.10;99.90;;;;;;4992028;28;20445;-74
2023/01/29 04:37:22;;;;;;;11.07;5.70;;;0.00;99.90;;;;;;4991919;28;20433;-73
2023/01/29 04:40:14;;;;;;;13.63;7.03;;;0.00;99.90;;;;;;4985404;28;20471;-73
2023/01/29 04:42:53;;;;;;;10.77;5.73;;;0.00;99.90;;;;;;4992253;28;20449;-72
2023/01/29 04:45:38;;;;;;;12.77;6.00;;;-0.10;99.90;;;;;;5000112;28;20520;-72
2023/01/29 04:48:04;;;;;;;10.77;5.70;;;-0.10;99.90;;;;;;4992047;28;20836;-72
2023/01/29 04:50:43;;;;;;;12.53;6.10;;;0.00;99.90;;;;;;4990872;28;20441;-72
2023/01/29 04:53:13;;;;;;;11.40;5.90;;;-0.10;99.90;;;;;;4991978;28;20686;-72
2023/01/29 04:56:14;;;;;;;9.20;5.90;;;-0.10;99.90;;;;;;4991911;28;20420;-72
2023/01/29 04:58:46;;;;;;;13.53;5.90;;;0.00;99.90;;;;;;4981595;28;20437;-73
2023/01/29 05:01:15;;;;;;;10.17;5.33;;;0.00;99.90;;;;;;4991770;28;20527;-74
2023/01/29 05:03:45;;;;;;;12.27;5.80;;;0.00;99.90;;;;;;4991560;28;20497;-72
2023/01/29 05:06:11;;;;;;;9.80;5.70;;;-0.10;99.90;;;;;;4992019;28;20433;-72
2023/01/29 05:08:38;;;;;;;11.00;6.13;;;0.00;99.90;;;;;;4991997;28;20926;-72
2023/01/29 05:11:04;;;;;;;10.50;6.17;;;-0.10;99.90;;;;;;4992267;28;21000;-72
2023/01/29 05:13:32;;;;;;;8.33;6.07;;;-0.10;99.90;;;;;;4991513;28;20461;-72
2023/01/29 05:16:06;;;;;;;9.83;5.83;;;0.00;99.90;;;;;;4992140;28;20800;-72
2023/01/29 05:18:33;;;;;;;12.70;5.67;;;0.00;99.90;;;;;;4991854;28;20496;-73
2023/01/29 05:21:03;;;;;;;10.00;5.37;;;0.00;99.90;;;;;;4991832;28;20458;-72
2023/01/29 05:23:28;;;;;;;14.23;6.17;;;-0.10;99.90;;;;;;4991538;28;20433;-71
2023/01/29 05:25:55;;;;;;;10.57;4.77;;;-0.10;99.90;;;;;;4992116;28;20909;-72
2023/01/29 05:28:21;;;;;;;13.07;6.57;;;-0.10;99.90;;;;;;4991714;28;20202;-74
2023/01/29 05:30:49;;;;;;;9.53;5.90;;;-0.10;99.90;;;;;;4991813;28;20471;-72
2023/01/29 05:33:23;;;;;;;7.93;5.67;;;-0.10;99.90;;;;;;4991737;28;20201;-72
2023/01/29 05:35:49;;;;;;;9.80;5.33;;;-0.10;99.90;;;;;;4991861;28;20464;-72
2023/01/29 05:38:16;;;;;;;12.30;6.00;;;-0.10;99.90;;;;;;4991845;28;20823;-72
2023/01/29 05:40:42;;;;;;;10.40;5.90;;;-0.10;99.90;;;;;;4983672;28;20472;-74
2023/01/29 05:43:19;;;;;;;16.40;6.03;;;0.00;99.90;;;;;;4991371;28;20524;-72
2023/01/29 05:45:54;;;;;;;12.20;5.73;;;-0.10;99.90;;;;;;4991713;28;20192;-72
2023/01/29 05:48:19;;;;;;;11.93;6.30;;;-0.10;99.90;;;;;;4991589;28;20443;-72
2023/01/29 05:50:45;;;;;;;11.90;5.83;;;-0.20;99.90;;;;;;4992724;28;20448;-73
2023/01/29 05:53:10;;;;;;;11.07;6.10;;;-0.20;99.90;;;;;;4990827;28;20200;-75
2023/01/29 05:55:36;;;;;;;9.30;4.97;;;-0.30;99.90;;;;;;4991427;28;20195;-71
2023/01/29 05:58:01;;;;;;;10.77;6.37;;;-0.30;99.90;;;;;;4991605;28;20184;-72
2023/01/29 06:00:27;;;;;;;9.27;6.17;;;-0.30;99.90;;;;;;4990019;28;20584;-73
2023/01/29 06:02:52;;;;;;;7.50;5.30;;;-0.20;99.90;;;;;;4991459;28;20197;-72
2023/01/29 06:05:18;;;;;;;10.60;6.20;;;-0.30;99.90;;;;;;4991284;28;20194;-71
2023/01/29 06:07:46;;;;;;;11.20;6.07;;;-0.30;99.90;;;;;;4991615;28;20210;-72
2023/01/29 06:10:17;;;;;;;14.90;5.70;;;-0.20;99.90;;;;;;4993125;28;20184;-72
2023/01/29 06:12:43;;;;;;;12.03;6.00;;;-0.20;99.90;;;;;;4994840;28;21026;-72
2023/01/29 06:15:09;;;;;;;9.00;5.37;;;-0.10;99.90;;;;;;4995025;28;20461;-72
2023/01/29 06:17:35;;;;;;;7.10;5.13;;;-0.10;99.90;;;;;;4995023;28;20487;-72
2023/01/29 06:20:01;;;;;;;9.40;5.43;;;-0.10;99.90;;;;;;4995097;28;20817;-72
2023/01/29 06:22:26;;;;;;;10.17;5.80;;;0.00;99.90;;;;;;4994499;28;20284;-72
2023/01/29 06:24:52;;;;;;;15.53;6.70;;;-0.10;99.90;;;;;;4994654;28;20185;-72
2023/01/29 06:27:17;;;;;;;13.20;5.70;;;-0.10;99.90;;;;;;4994863;28;20914;-72
2023/01/29 06:29:43;;;;;;;12.63;5.87;;;-0.10;99.90;;;;;;4994767;28;20185;-72
2023/01/29 06:32:08;;;;;;;11.60;5.63;;;-0.10;99.90;;;;;;4994645;28;20233;-72
2023/01/29 06:34:34;;;;;;;11.17;5.60;;;0.00;99.90;;;;;;4994499;28;20278;-73
2023/01/29 06:36:59;;;;;;;13.10;6.53;;;-0.10;99.90;;;;;;4995003;28;20703;-73
2023/01/29 06:39:25;;;;;;;7.80;6.10;;;-0.10;99.90;;;;;;4994433;28;20201;-73
2023/01/29 06:41:50;;;;;;;7.40;5.87;;;-0.10;99.90;;;;;;4994730;28;20208;-71
2023/01/29 06:44:16;;;;;;;10.20;6.37;;;-0.10;99.90;;;;;;4993320;28;20602;-71
2023/01/29 06:46:41;;;;;;;8.67;5.60;;;-0.10;99.90;;;;;;4994557;28;20200;-73
2023/01/29 06:49:07;;;;;;;9.17;5.83;;;-0.10;99.90;;;;;;4994610;28;20194;-71
2023/01/29 06:51:32;;;;;;;14.57;6.20;;;-0.10;99.90;;;;;;4994412;28;20214;-71
2023/01/29 06:53:58;;;;;;;12.67;6.23;;;-0.10;99.90;;;;;;4994285;28;20234;-71
2023/01/29 06:56:24;;;;;;;13.30;5.40;;;0.00;99.90;;;;;;4994393;28;20219;-72
2023/01/29 06:58:49;;;;;;;10.00;6.87;;;0.00;99.90;;;;;;4994479;28;20819;-70
2023/01/29 07:01:15;;;;;;;10.30;5.60;;;-0.10;99.90;;;;;;4994037;28;20217;-70
2023/01/29 07:03:41;;;;;;;10.00;5.77;;;-0.10;99.90;;;;;;4993535;28;20234;-71
2023/01/29 07:06:07;;;;;;;8.57;5.77;;;-0.10;99.90;;;;;;4994045;28;20194;-71
2023/01/29 07:08:36;;;;;;;12.90;6.63;;;-0.10;99.90;;;;;;4994024;28;20442;-70
2023/01/29 07:11:03;;;;;;;8.97;5.90;;;-0.10;99.90;;;;;;4994102;28;20201;-70
2023/01/29 07:13:29;;;;;;;8.27;5.27;;;-0.10;99.90;;;;;;4992470;28;20460;-70
2023/01/29 07:15:59;;;;;;;12.77;6.63;;;0.00;99.90;;;;;;4994079;28;20851;-71
2023/01/29 07:18:24;;;;;;;11.27;6.50;;;-0.10;99.90;;;;;;4993904;28;20468;-70
2023/01/29 07:20:50;;;;;;;12.40;6.60;;;0.00;99.90;;;;;;4992245;28;20472;-70
2023/01/29 07:23:16;;;;;;;12.37;6.30;;;0.00;99.90;;;;;;4993677;28;20190;-70
2023/01/29 07:25:42;;;;;;;10.30;6.57;;;0.00;99.90;;;;;;4993750;28;20184;-71
2023/01/29 07:28:08;;;;;;;11.33;6.20;;;0.00;99.90;;;;;;4993777;28;20511;-71
2023/01/29 07:30:34;;;;;;;8.50;5.40;;;0.00;99.90;;;;;;4993676;28;20436;-70
2023/01/29 07:33:03;;;;;;;9.63;6.30;;;-0.10;99.90;;;;;;4993744;28;20561;-70
2023/01/29 07:35:29;;;;;;;12.13;6.73;;;0.00;99.90;;;;;;4993516;28;20205;-70
2023/01/29 07:37:55;;;;;;;12.30;6.67;;;0.00;99.90;;;;;;4993807;28;20439;-70
2023/01/29 07:40:20;;;;;;;10.53;6.43;;;0.00;99.90;;;;;;4993604;28;20434;-71
2023/01/29 07:42:46;;;;;;;11.23;6.30;;;0.00;99.90;;;;;;4993378;28;20194;-70
2023/01/29 07:45:11;;;;;;;8.90;5.40;;;0.10;99.90;;;;;;4993146;28;20180;-70
2023/01/29 07:47:37;;;;;;;10.80;6.50;;;0.10;99.90;;;;;;4993420;28;20198;-70
2023/01/29 07:50:04;;;;;;;13.70;6.30;;;0.10;99.90;;;;;;4993652;28;20191;-70
2023/01/29 07:52:31;;;;;;;12.70;6.20;;;0.20;99.90;;;;;;4992969;28;20308;-68
2023/01/29 07:54:56;;;;;;;9.53;6.60;;;0.20;99.90;;;;;;4993332;28;20457;-71
2023/01/29 07:57:22;;;;;;;10.20;6.37;;;0.20;99.90;;;;;;4993341;28;20440;-70
2023/01/29 07:59:48;;;;;;;10.93;6.23;;;0.20;99.90;;;;;;4993397;28;20560;-71
2023/01/29 08:02:13;;;;;;;13.33;7.63;;;0.20;99.90;;;;;;4993194;28;20306;-70
2023/01/29 08:04:39;;;;;;;9.07;6.70;;;0.30;99.90;;;;;;4992825;28;20200;-71
2023/01/29 08:07:04;;;;;;;10.07;6.47;;;0.30;99.90;;;;;;4993249;28;20194;-69
2023/01/29 08:09:30;;;;;;;10.80;6.73;;;0.30;99.90;;;;;;4993440;28;20276;-69
2023/01/29 08:11:57;;;;;;;11.03;6.33;;;0.40;99.90;;;;;;4993974;28;20296;-71
2023/01/29 08:14:22;;;;;;;10.13;6.63;;;0.40;99.90;;;;;;4993830;28;20449;-70
2023/01/29 08:16:48;;;;;;;11.20;5.90;;;0.40;99.90;;;;;;4993139;28;20994;-71
2023/01/29 08:19:14;;;;;;;12.87;6.70;;;0.50;99.90;;;;;;4992577;28;20227;-70
2023/01/29 08:21:39;;;;;;;10.00;6.10;;;0.50;99.90;;;;;;4992563;28;20530;-71
2023/01/29 08:24:05;;;;;;;10.27;6.17;;;0.60;99.90;;;;;;4991857;28;20257;-69
2023/01/29 08:26:30;;;;;;;10.43;6.40;;;0.60;99.90;;;;;;4992442;28;20549;-68
2023/01/29 08:28:56;;;;;;;15.40;7.10;;;0.60;99.90;;;;;;4992753;28;20187;-69
2023/01/29 08:31:21;;;;;;;13.33;7.00;;;0.60;99.90;;;;;;4992041;28;20273;-70
2023/01/29 08:33:47;;;;;;;15.17;7.13;;;0.60;99.90;;;;;;4991611;28;20194;-69
2023/01/29 08:36:13;;;;;;;12.53;6.60;;;0.60;99.90;;;;;;4992415;28;20206;-69
2023/01/29 08:38:39;;;;;;;12.80;6.77;;;0.60;99.90;;;;;;4992052;28;20199;-69
2023/01/29 08:41:05;;;;;;;19.03;6.73;;;0.60;99.90;;;;;;4991813;28;20890;-69
2023/01/29 08:43:31;;;;;;;16.00;7.20;;;0.60;99.90;;;;;;4991680;28;20206;-68
2023/01/29 08:45:56;;;;;;;15.40;7.30;;;0.70;99.90;;;;;;4991991;28;20427;-70
2023/01/29 08:48:24;;;;;;;14.87;6.93;;;0.70;99.90;;;;;;4992163;28;20205;-69
2023/01/29 08:50:49;;;;;;;10.53;6.40;;;0.80;99.90;;;;;;4992124;28;20252;-70
2023/01/29 08:53:15;;;;;;;13.50;7.20;;;0.80;99.90;;;;;;4991802;28;20538;-68
2023/01/29 08:55:41;;;;;;;11.13;6.10;;;0.90;99.90;;;;;;4991855;28;20417;-69
2023/01/29 08:58:09;;;;;;;16.90;7.27;;;0.90;99.90;;;;;;4992270;28;20182;-69
2023/01/29 09:00:35;;;;;;;10.57;5.90;;;1.10;99.90;;;;;;4991970;28;20223;-69
2023/01/29 09:03:00;;;;;;;12.70;7.60;;;1.10;99.90;;;;;;4991803;28;20423;-68
2023/01/29 09:05:29;;;;;;;12.67;6.80;;;1.10;99.90;;;;;;4991795;28;20485;-70
2023/01/29 09:07:58;;;;;;;12.47;6.90;;;1.10;99.90;;;;;;4991983;28;20195;-69
2023/01/29 09:10:23;;;;;;;13.50;6.17;;;1.20;99.90;;;;;;4991751;28;20432;-69
2023/01/29 09:12:49;;;;;;;12.87;6.60;;;1.10;99.90;;;;;;4991778;28;20440;-70
2023/01/29 09:15:15;;;;;;;13.40;7.23;;;1.20;99.90;;;;;;4991952;28;20265;-69
2023/01/29 09:17:40;;;;;;;11.30;6.43;;;1.20;99.90;;;;;;4991811;28;20195;-69
2023/01/29 09:20:06;;;;;;;13.10;6.50;;;1.30;99.90;;;;;;4991954;28;20215;-68
2023/01/29 09:22:32;;;;;;;11.90;6.90;;;1.30;99.90;;;;;;4991516;28;20238;-68
2023/01/29 09:24:58;;;;;;;15.33;7.17;;;1.30;99.90;;;;;;4991651;28;20927;-70
2023/01/29 09:27:23;;;;;;;14.53;7.37;;;1.30;99.90;;;;;;4991721;28;20238;-70
2023/01/29 09:29:49;;;;;;;11.53;7.23;;;1.40;99.90;;;;;;4992081;28;20407;-70
2023/01/29 09:32:14;;;;;;;12.60;7.40;;;1.40;99.90;;;;;;4991362;28;20305;-70
2023/01/29 09:34:40;;;;;;;15.80;9.20;;;1.40;99.90;;;;;;4990652;28;20432;-69
2023/01/29 09:37:05;;;;;;;16.53;9.43;;;1.30;99.90;;;;;;4991317;28;20412;-70
2023/01/29 09:39:31;;;;;;;18.10;8.13;;;1.40;99.90;;;;;;4991427;28;20194;-70
2023/01/29 09:42:26;;;;;;;17.60;10.00;;;1.40;99.90;;;;;;4983086;28;20467;-69
2023/01/29 09:45:01;;;;;;;14.77;8.27;;;1.50;99.90;;;;;;4972705;28;20212;-70
2023/01/29 09:47:28;;;;;;;17.60;8.50;;;1.50;99.90;;;;;;4995665;28;20967;-70
2023/01/29 09:50:05;;;;;;;14.50;8.63;;;1.60;99.90;;;;;;4995422;28;20523;-69
2023/01/29 09:52:38;;;;;;;18.73;8.87;;;1.70;99.90;;;;;;4995311;28;20458;-69
2023/01/29 09:55:25;;;;;;;13.30;7.20;;;1.70;99.90;;;;;;4988446;28;20436;-71
2023/01/29 09:57:54;;;;;;;15.80;8.60;;;1.70;99.90;;;;;;4994129;28;20497;-70
2023/01/29 10:00:40;;;;;;;16.47;8.70;;;1.80;99.90;;;;;;4995094;28;20434;-68
2023/01/29 10:03:28;;;;;;;15.10;8.60;;;1.90;99.90;;;;;;4995098;28;20424;-70
2023/01/29 10:06:35;;;;;;;23.43;9.10;;;2.10;99.90;;;;;;4995192;28;20397;-69
2023/01/29 10:09:24;;;;;;;13.00;7.30;;;2.30;99.90;;;;;;4987068;28;20443;-69
2023/01/29 10:12:01;;;;;;;16.00;7.87;;;2.50;99.90;;;;;;4995140;28;20957;-70
2023/01/29 10:15:17;;;;;;;15.07;8.70;;;2.70;99.90;;;;;;4994892;28;20546;-70
2023/01/29 10:18:10;;;;;;;15.80;8.47;;;3.00;99.90;;;;;;4917651;29;20446;-69
2023/01/29 10:20:58;;;;;;;17.40;7.30;;;3.30;99.90;;;;;;4914358;29;20550;-70
2023/01/29 10:23:31;;;;;;;14.20;7.33;;;3.40;99.90;;;;;;4981823;28;20462;-71
2023/01/29 10:25:57;;;;;;;16.03;8.37;;;3.60;99.90;;;;;;4995019;28;20421;-71
2023/01/29 10:28:25;;;;;;;30.87;7.13;;;3.90;99.90;;;;;;4994885;28;20488;-70
2023/01/29 10:30:58;;;;;;;23.17;8.80;;;4.00;99.90;;;;;;4994628;28;20578;-70
2023/01/29 10:33:34;;;;;;;11.97;8.30;;;4.00;99.90;;;;;;4994623;28;20492;-70
2023/01/29 10:36:03;;;;;;;17.43;8.07;;;4.20;99.90;;;;;;4994840;28;20958;-70
2023/01/29 10:38:43;;;;;;;15.27;8.37;;;4.10;99.90;;;;;;4994633;28;20430;-71
2023/01/29 10:41:42;;;;;;;118.33;107.13;;;3.70;99.90;;;;;;4987831;28;20565;-69
2023/01/29 10:44:25;;;;;;;17.30;7.93;;;3.50;99.90;;;;;;4994402;28;20504;-70
2023/01/29 10:47:09;;;;;;;16.37;7.70;;;3.50;99.90;;;;;;4994682;28;20416;-70
2023/01/29 10:49:46;;;;;;;14.40;8.73;;;3.30;99.90;;;;;;4994630;28;20468;-71
2023/01/29 10:52:42;;;;;;;14.50;9.07;;;3.30;99.90;;;;;;4987923;28;20818;-69
2023/01/29 10:55:19;;;;;;;12.10;9.03;;;3.40;99.90;;;;;;4993653;28;20473;-70
2023/01/29 10:58:08;;;;;;;17.40;10.87;;;3.30;99.90;;;;;;4994450;28;20511;-70
2023/01/29 11:00:38;;;;;;;10.47;8.10;;;3.30;99.90;;;;;;4994312;28;20822;-70
2023/01/29 11:03:25;;;;;;;13.10;7.70;;;3.30;99.90;;;;;;4994072;28;20507;-70
2023/01/29 11:06:03;;;;;;;12.10;7.90;;;3.50;99.90;;;;;;4994138;28;20418;-70
2023/01/29 11:08:38;;;;;;;13.03;8.70;;;3.50;99.90;;;;;;4994225;28;20837;-71
2023/01/29 11:11:10;;;;;;;11.43;8.70;;;3.60;99.90;;;;;;4994229;28;20450;-71
2023/01/29 11:13:59;;;;;;;12.00;8.73;;;3.60;99.90;;;;;;4993883;28;20939;-70
2023/01/29 11:16:28;;;;;;;13.70;8.43;;;3.60;99.90;;;;;;4989122;28;20437;-71
2023/01/29 11:18:58;;;;;;;12.43;7.97;;;3.60;99.90;;;;;;4994023;28;20461;-70
2023/01/29 11:21:26;;;;;;;10.70;8.50;;;3.70;99.90;;;;;;4993630;28;20497;-70
2023/01/29 11:24:16;;;;;;;23.47;8.27;;;3.70;99.90;;;;;;4993676;28;20486;-70
2023/01/29 11:26:44;;;;;;;11.77;8.63;;;3.60;99.90;;;;;;4994022;28;20428;-70
2023/01/29 11:29:39;;;;;;;11.77;7.77;;;3.70;99.90;;;;;;4993990;28;20418;-69
2023/01/29 11:32:10;;;;;;;13.80;7.90;;;3.70;99.90;;;;;;4993818;28;20500;-70
2023/01/29 11:34:56;;;;;;;15.50;8.80;;;3.60;99.90;;;;;;4993814;28;20418;-72
2023/01/29 11:37:21;;;;;;;14.97;8.07;;;3.60;99.90;;;;;;4994015;28;20480;-71
2023/01/29 11:39:47;;;;;;;13.70;8.50;;;3.50;99.90;;;;;;4993793;28;20525;-70
2023/01/29 11:42:20;;;;;;;13.33;8.43;;;3.30;99.90;;;;;;4993448;28;20272;-70
2023/01/29 11:44:46;;;;;;;11.67;9.03;;;3.30;99.90;;;;;;4993171;28;20222;-70
2023/01/29 11:47:22;;;;;;;12.37;8.47;;;3.40;99.90;;;;;;4993538;28;20461;-70
2023/01/29 11:49:53;;;;;;;13.83;9.20;;;3.30;99.90;;;;;;4993537;28;20247;-70
2023/01/29 11:52:22;;;;;;;12.10;9.03;;;3.30;99.90;;;;;;4993357;28;20966;-70
2023/01/29 11:54:55;;;;;;;14.23;9.40;;;3.50;99.90;;;;;;4991591;28;20535;-70
2023/01/29 11:57:29;;;;;;;13.60;9.33;;;3.60;99.90;;;;;;4993296;28;21041;-71
2023/01/29 11:59:59;;;;;;;14.07;9.07;;;3.70;99.90;;;;;;4993360;28;20587;-71
2023/01/29 12:02:29;;;;;;;14.17;9.20;;;3.70;99.90;;;;;;4993037;28;20507;-70
2023/01/29 12:04:58;;;;;;;14.27;10.03;;;3.70;99.90;;;;;;4993443;28;20435;-71
2023/01/29 12:07:25;;;;;;;16.13;8.90;;;3.70;99.90;;;;;;4992047;28;20445;-71
2023/01/29 12:09:55;;;;;;;12.23;9.30;;;3.70;99.90;;;;;;4993355;28;20532;-71
2023/01/29 12:12:29;;;;;;;26.87;14.40;;;3.70;99.90;;;;;;4993085;28;20973;-71
2023/01/29 12:15:09;;;;;;;13.97;10.10;;;3.70;99.90;;;;;;4993310;28;20421;-70
2023/01/29 12:17:37;;;;;;;14.23;9.10;;;3.70;99.90;;;;;;4993545;28;20435;-70
2023/01/29 12:20:11;;;;;;;11.80;8.70;;;3.90;99.90;;;;;;4993260;28;20533;-70
2023/01/29 12:22:53;;;;;;;14.33;9.33;;;4.00;99.90;;;;;;4993351;28;20484;-70
2023/01/29 12:25:32;;;;;;;22.57;9.93;;;4.00;99.90;;;;;;4992804;28;20514;-72
2023/01/29 12:28:22;;;;;;;14.47;10.50;;;4.00;99.90;;;;;;4992768;28;20921;-70
2023/01/29 12:30:59;;;;;;;10.77;8.50;;;4.00;99.90;;;;;;4992843;28;20454;-71
2023/01/29 12:33:42;;;;;;;19.07;9.20;;;4.00;99.90;;;;;;4991317;28;20445;-71
2023/01/29 12:36:16;;;;;;;14.50;10.10;;;4.10;99.90;;;;;;4992693;28;20429;-71
2023/01/29 12:38:43;;;;;;;10.90;8.37;;;4.10;99.90;;;;;;4992703;28;20490;-70
2023/01/29 12:41:23;;;;;;;11.67;9.10;;;4.10;99.90;;;;;;4985160;28;21007;-71
2023/01/29 12:43:53;;;;;;;13.50;9.50;;;4.00;99.90;;;;;;4992296;28;20431;-71
2023/01/29 12:46:41;;;;;;;16.30;10.70;;;4.00;99.90;;;;;;4992502;28;20426;-71
2023/01/29 12:49:16;;;;;;;14.73;11.33;;;4.00;99.90;;;;;;4992481;28;20796;-70
2023/01/29 12:52:01;;;;;;;15.10;9.10;;;3.90;99.90;;;;;;4992662;28;20464;-70
2023/01/29 12:54:46;;;;;;;13.13;9.40;;;4.00;99.90;;;;;;4987064;28;20441;-71
2023/01/29 12:57:37;;;;;;;14.07;10.23;;;4.10;99.90;;;;;;4992659;28;20952;-71
2023/01/29 13:00:10;;;;;;;15.90;9.50;;;4.00;99.90;;;;;;4992660;28;20428;-71
2023/01/29 13:02:43;;;;;;;18.13;11.10;;;4.10;99.90;;;;;;4991983;28;20894;-71
2023/01/29 13:05:29;;;;;;;12.40;9.40;;;4.10;99.90;;;;;;4991947;28;20910;-68
2023/01/29 13:08:06;;;;;;;40.30;34.63;;;4.20;99.90;;;;;;4992378;28;20430;-72
2023/01/29 13:10:37;;;;;;;78.93;42.80;;;4.10;99.90;;;;;;4992248;28;20537;-71
2023/01/29 13:13:20;;;;;;;20.27;11.10;;;3.90;99.90;;;;;;4991907;28;20431;-70
2023/01/29 13:15:47;;;;;;;16.10;9.90;;;3.90;99.90;;;;;;4991921;28;20464;-71
2023/01/29 13:18:43;;;;;;;39.33;32.10;;;4.00;99.90;;;;;;4991564;28;20421;-70
2023/01/29 13:21:16;;;;;;;16.60;10.10;;;4.00;99.90;;;;;;4991826;28;20527;-70
2023/01/29 13:23:52;;;;;;;16.30;9.03;;;4.10;99.90;;;;;;4991769;28;20437;-71
2023/01/29 13:26:20;;;;;;;20.63;10.10;;;4.10;99.90;;;;;;4992096;28;20438;-69
2023/01/29 13:28:46;;;;;;;42.83;35.87;;;4.10;99.90;;;;;;4992334;28;20428;-69
2023/01/29 13:31:24;;;;;;;21.80;11.73;;;4.20;99.90;;;;;;4992053;28;20927;-72
2023/01/29 13:34:14;;;;;;;16.83;9.97;;;4.20;99.90;;;;;;4992388;28;20975;-71
2023/01/29 13:36:46;;;;;;;19.20;10.40;;;4.30;99.90;;;;;;4991856;28;20927;-71
2023/01/29 13:39:30;;;;;;;18.97;11.00;;;4.40;99.90;;;;;;4991923;28;20985;-70
2023/01/29 13:41:58;;;;;;;16.93;10.37;;;4.40;99.90;;;;;;4999745;28;20476;-71
2023/01/29 13:44:33;;;;;;;19.87;11.70;;;4.40;99.90;;;;;;4991365;28;20445;-71
2023/01/29 13:47:10;;;;;;;16.07;10.30;;;4.30;99.90;;;;;;4992070;28;20582;-71
2023/01/29 13:49:37;;;;;;;15.53;10.93;;;4.30;99.90;;;;;;4991990;28;20441;-70
2023/01/29 13:52:34;;;;;;;16.03;11.00;;;4.30;99.90;;;;;;4991843;28;20600;-70
2023/01/29 13:55:10;;;;;;;18.33;11.70;;;4.30;99.90;;;;;;4991496;28;20436;-70
2023/01/29 13:57:47;;;;;;;22.90;11.90;;;4.40;99.90;;;;;;4991881;28;20429;-70
2023/01/29 14:00:23;;;;;;;16.83;10.70;;;4.30;99.90;;;;;;4983992;28;20440;-69
2023/01/29 14:03:03;;;;;;;14.63;10.73;;;4.40;99.90;;;;;;4991492;28;20503;-70
2023/01/29 14:05:28;;;;;;;18.33;11.70;;;4.30;99.90;;;;;;4991581;28;20885;-71
2023/01/29 14:08:37;;;;;;;15.63;11.10;;;4.20;99.90;;;;;;4991781;28;20465;-70
2023/01/29 14:11:15;;;;;;;18.83;10.27;;;4.10;99.90;;;;;;4962116;28;20222;-70
2023/01/29 14:13:48;;;;;;;15.10;10.27;;;3.90;99.90;;;;;;4991498;28;20428;-71
2023/01/29 14:16:14;;;;;;;17.70;12.20;;;3.80;99.90;;;;;;4991528;28;20483;-70
2023/01/29 14:19:03;;;;;;;17.07;10.80;;;3.80;99.90;;;;;;4991585;28;20424;-70
2023/01/29 14:21:35;;;;;;;13.60;10.70;;;3.80;99.90;;;;;;4986129;28;20707;-71
2023/01/29 14:24:19;;;;;;;17.70;10.63;;;3.80;99.90;;;;;;4991011;28;20471;-70
2023/01/29 14:26:47;;;;;;;15.50;10.23;;;3.70;99.90;;;;;;4991703;28;20433;-71
2023/01/29 14:29:26;;;;;;;14.30;10.77;;;3.60;99.90;;;;;;4983419;28;20412;-71
2023/01/29 14:32:05;;;;;;;17.70;11.00;;;3.50;99.90;;;;;;4994005;28;20523;-71
2023/01/29 14:34:34;;;;;;;12.37;9.20;;;3.50;99.90;;;;;;4994735;28;20436;-72
2023/01/29 14:37:15;;;;;;;14.40;9.80;;;3.40;99.90;;;;;;4995027;28;20431;-73
2023/01/29 14:39:45;;;;;;;16.03;11.07;;;3.30;99.90;;;;;;4994975;28;20490;-71
2023/01/29 14:42:32;;;;;;;14.30;10.03;;;3.30;99.90;;;;;;4994724;28;20883;-71
2023/01/29 14:45:23;;;;;;;87.67;55.87;;;3.30;99.90;;;;;;4994913;28;20440;-70
2023/01/29 14:47:49;;;;;;;25.53;10.63;;;3.20;99.90;;;;;;4986741;28;20448;-70
2023/01/29 14:50:33;;;;;;;18.60;12.00;;;3.20;99.90;;;;;;4986190;28;20917;-70
2023/01/29 14:53:11;;;;;;;16.57;9.90;;;3.20;99.90;;;;;;4994475;28;20274;-71